ASE weather

Aspen-Pitkin Co/Sardy Field
Aspen, Colorado, United States

Public forecast

Using degrees Fahrenheit for public forecast. Weather courtesy of forecast.io.

Current aviation weather report (METAR) for Aspen-Pitkin Co/Sardy Field

Retrieved 2019/10/16 05:53 UTC (60 minutes ago):

KASE 160553Z AUTO 20005KT 10SM CLR 02/M11 A3040 RMK AO2 SLP227 T00171106 10106 20000 51011

Aviation forecast (TAF) for Aspen-Pitkin Co/Sardy Field

Retrieved 2019/10/16 06:24 UTC (29 minutes ago):

TAF KASE 160523Z 1606/1706 21008KT P6SM SKC FM161800 35005KT P6SM FEW180 FEW250 FM162200 31009KT P6SM FEW180 FEW250 FM162300 28008KT P6SM SKC